Terminal Aerodrome Forecast
Issued by NWS

Home | Current Version | Previous Version | Text Only | Print | Product List | Glossary On
Versions: 1 2 3 4 5 6 7 8 9 10 11 12 13
891
FTUS45 KVEF 272320
TAFEED
TAF
KEED 272320Z 2800/2824 VRB06KT P6SM FEW090 SCT120
     FM281200 VRB05KT P6SM FEW090 SCT120
     FM281900 12007KT P6SM SCT120=

USA.gov is the U.S. government's official web portal to all federal, state and local government web resources and services.